createdAt,value
2017-09-10T00:02:08.796Z,83.00
2017-09-10T00:04:36.454Z,84.46
2017-09-10T00:07:03.929Z,85.65
2017-09-10T00:09:31.385Z,83.62
2017-09-10T00:11:58.881Z,83.84
2017-09-10T00:14:26.324Z,83.21
2017-09-10T00:16:53.829Z,82.55
2017-09-10T00:19:21.285Z,83.27
2017-09-10T00:21:48.761Z,83.86
2017-09-10T00:24:16.220Z,83.57
2017-09-10T00:26:43.761Z,83.73
2017-09-10T00:29:11.312Z,83.78
2017-09-10T00:31:38.892Z,83.75
2017-09-10T00:34:06.481Z,83.32
2017-09-10T00:36:33.961Z,83.18
2017-09-10T00:39:01.416Z,83.40
2017-09-10T00:41:29.302Z,83.73
2017-09-10T00:43:56.869Z,83.74
2017-09-10T00:46:24.354Z,83.18
2017-09-10T00:48:51.815Z,82.70
2017-09-10T00:51:19.337Z,83.08
2017-09-10T00:53:47.304Z,82.83
2017-09-10T00:56:14.782Z,82.84
2017-09-10T00:58:42.228Z,82.86
2017-09-10T01:01:09.676Z,83.45
2017-09-10T01:03:37.157Z,83.79
2017-09-10T01:06:04.745Z,83.31
2017-09-10T01:08:32.250Z,83.28
2017-09-10T01:10:59.812Z,83.43
2017-09-10T01:13:27.284Z,83.53
2017-09-10T01:15:54.731Z,83.42
2017-09-10T01:18:22.207Z,82.92
2017-09-10T01:20:50.305Z,82.64
2017-09-10T01:23:17.817Z,83.05
2017-09-10T01:25:45.264Z,83.34
2017-09-10T01:28:12.791Z,82.95
2017-09-10T01:30:40.281Z,82.57
2017-09-10T01:33:07.820Z,81.87
2017-09-10T01:35:35.314Z,82.41
2017-09-10T01:38:02.780Z,83.05
2017-09-10T01:40:30.237Z,82.84
2017-09-10T01:42:57.768Z,82.38
2017-09-10T01:45:25.642Z,82.65
2017-09-10T01:47:53.112Z,82.55
2017-09-10T01:50:20.580Z,82.74
2017-09-10T01:52:48.063Z,83.48
2017-09-10T01:55:15.544Z,83.52
2017-09-10T01:57:43.373Z,82.85
2017-09-10T02:00:10.874Z,82.41
2017-09-10T02:02:38.349Z,82.32
2017-09-10T02:05:05.828Z,82.75
2017-09-10T02:07:33.365Z,82.48
2017-09-10T02:10:01.071Z,83.00
2017-09-10T02:12:28.525Z,82.78
2017-09-10T02:14:55.997Z,82.99
2017-09-10T02:17:23.489Z,83.04
2017-09-10T02:19:50.973Z,82.69
2017-09-10T02:22:18.641Z,82.81
2017-09-10T02:24:46.153Z,83.33
2017-09-10T02:27:13.646Z,82.85
2017-09-10T02:29:41.213Z,83.06
2017-09-10T02:32:08.663Z,82.62
2017-09-10T02:34:36.162Z,82.30
2017-09-10T02:37:03.623Z,82.95
2017-09-10T02:39:31.117Z,82.94
2017-09-10T02:41:58.673Z,83.00
2017-09-10T02:44:26.226Z,82.68
2017-09-10T02:46:53.717Z,82.70
2017-09-10T02:49:21.202Z,81.91
2017-09-10T02:51:48.647Z,82.51
2017-09-10T02:54:16.131Z,83.29
2017-09-10T02:56:43.613Z,83.59
2017-09-10T02:59:11.297Z,83.14
2017-09-10T03:01:38.885Z,83.58
2017-09-10T03:04:06.370Z,83.70
2017-09-10T03:06:33.820Z,83.73
2017-09-10T03:09:01.306Z,83.39
2017-09-10T03:11:28.798Z,83.42
2017-09-10T03:13:56.267Z,83.03
2017-09-10T03:16:23.748Z,83.63
2017-09-10T03:18:51.196Z,84.61
2017-09-10T03:21:18.669Z,84.78
2017-09-10T03:23:46.131Z,85.11
2017-09-10T03:26:13.628Z,84.83
2017-09-10T03:28:41.084Z,84.26
2017-09-10T03:31:08.583Z,83.48
2017-09-10T03:33:36.085Z,83.84
2017-09-10T03:36:03.645Z,84.17
2017-09-10T03:38:31.096Z,84.52
2017-09-10T03:40:58.568Z,84.63
2017-09-10T03:43:26.024Z,86.04
2017-09-10T03:45:53.560Z,86.76
2017-09-10T03:48:21.120Z,86.54
2017-09-10T03:50:48.588Z,86.75
2017-09-10T03:53:16.041Z,86.15
2017-09-10T03:55:43.541Z,85.74
2017-09-10T03:58:11.005Z,86.22
2017-09-10T04:00:38.501Z,86.29
2017-09-10T04:03:05.954Z,86.40
2017-09-10T04:05:33.410Z,86.70
2017-09-10T04:08:00.880Z,86.52
2017-09-10T04:10:28.384Z,85.77
2017-09-10T04:12:55.886Z,85.81
2017-09-10T04:15:23.348Z,85.33
2017-09-10T04:17:50.840Z,85.35
2017-09-10T04:20:18.302Z,85.12
2017-09-10T04:22:45.773Z,85.88
2017-09-10T04:25:13.467Z,85.31
2017-09-10T04:27:41.037Z,86.06
2017-09-10T04:30:08.606Z,86.02
2017-09-10T04:32:36.157Z,85.69
2017-09-10T04:35:03.611Z,85.91
2017-09-10T04:37:31.627Z,86.22
2017-09-10T04:39:59.115Z,86.33
2017-09-10T04:42:26.593Z,86.20
2017-09-10T04:44:54.069Z,86.02
2017-09-10T04:47:21.553Z,86.10
2017-09-10T04:49:49.000Z,86.31
2017-09-10T04:52:16.525Z,88.08
2017-09-10T04:54:44.000Z,87.55
2017-09-10T04:57:11.471Z,88.37
2017-09-10T04:59:39.005Z,88.45
2017-09-10T05:02:06.469Z,87.64
2017-09-10T05:04:34.013Z,87.70
2017-09-10T05:07:01.579Z,88.46
2017-09-10T05:09:29.062Z,87.80
2017-09-10T05:11:56.512Z,89.52
2017-09-10T05:14:24.048Z,88.85
2017-09-10T05:16:51.537Z,89.05
2017-09-10T05:19:19.013Z,88.35
2017-09-10T05:21:46.541Z,87.70
2017-09-10T05:24:14.073Z,87.31
2017-09-10T05:26:41.541Z,86.90
2017-09-10T05:29:09.100Z,86.55
2017-09-10T05:31:36.558Z,86.86
2017-09-10T05:34:04.077Z,87.64
2017-09-10T05:36:31.552Z,87.44
2017-09-10T05:38:59.026Z,88.96
2017-09-10T05:41:26.573Z,89.00
2017-09-10T05:43:54.156Z,88.73
2017-09-10T05:46:21.613Z,89.47
2017-09-10T05:48:49.105Z,88.04
2017-09-10T05:51:16.561Z,87.67
2017-09-10T05:53:44.041Z,87.81
2017-09-10T05:56:11.495Z,89.48
2017-09-10T05:58:39.080Z,88.94
2017-09-10T06:01:06.532Z,88.89
2017-09-10T06:03:34.025Z,88.24
2017-09-10T06:06:01.502Z,88.20
2017-09-10T06:08:29.092Z,87.74
2017-09-10T06:10:56.572Z,87.34
2017-09-10T06:13:24.131Z,86.83
2017-09-10T06:15:51.618Z,86.23
2017-09-10T06:18:19.105Z,86.54
2017-09-10T06:20:46.572Z,87.42
2017-09-10T06:23:14.070Z,87.27
2017-09-10T06:25:41.648Z,85.87
2017-09-10T06:28:09.105Z,86.01
2017-09-10T06:30:36.634Z,87.10
2017-09-10T06:33:04.100Z,87.93
2017-09-10T06:35:31.563Z,87.65
2017-09-10T06:37:59.022Z,87.50
2017-09-10T06:40:26.573Z,87.48
2017-09-10T06:42:54.045Z,87.75
2017-09-10T06:45:21.529Z,87.90
2017-09-10T06:47:48.988Z,87.16
2017-09-10T06:50:16.461Z,87.41
2017-09-10T06:52:43.951Z,86.37
2017-09-10T06:55:11.428Z,86.76
2017-09-10T06:57:38.952Z,86.67
2017-09-10T07:00:06.438Z,86.31
2017-09-10T07:02:33.972Z,86.38
2017-09-10T07:05:01.433Z,86.22
2017-09-10T07:07:28.911Z,85.53
2017-09-10T07:09:56.373Z,85.19
2017-09-10T07:12:23.852Z,84.18
2017-09-10T07:14:51.309Z,83.92
2017-09-10T07:17:18.809Z,84.02
2017-09-10T07:19:46.256Z,83.07
2017-09-10T07:22:13.725Z,83.48
2017-09-10T07:24:41.231Z,81.83
2017-09-10T07:27:08.744Z,81.55
2017-09-10T07:29:36.197Z,82.06
2017-09-10T07:32:03.680Z,81.76
2017-09-10T07:34:31.221Z,80.28
2017-09-10T07:36:59.168Z,79.60
2017-09-10T07:39:26.659Z,79.94
2017-09-10T07:41:54.127Z,77.37
2017-09-10T07:44:21.585Z,77.11
2017-09-10T07:46:49.093Z,77.05
2017-09-10T07:49:16.849Z,77.39
2017-09-10T07:51:44.344Z,77.19
2017-09-10T07:54:11.837Z,77.52
2017-09-10T07:56:39.320Z,79.50
2017-09-10T07:59:06.781Z,78.46
2017-09-10T08:01:34.264Z,79.05
2017-09-10T08:04:01.781Z,77.96
2017-09-10T08:06:29.242Z,76.80
2017-09-10T08:08:56.716Z,76.87
2017-09-10T08:11:24.164Z,77.13
2017-09-10T08:13:51.652Z,77.42
2017-09-10T08:16:19.125Z,76.16
2017-09-10T08:18:46.610Z,75.61
2017-09-10T08:21:14.063Z,75.22
2017-09-10T08:23:41.527Z,75.00
2017-09-10T08:26:09.029Z,75.68
2017-09-10T08:28:36.584Z,73.98
2017-09-10T08:31:04.146Z,72.97
2017-09-10T08:33:31.704Z,74.38
2017-09-10T08:35:59.261Z,76.73
2017-09-10T08:38:28.031Z,74.20
2017-09-10T08:40:55.572Z,73.44
2017-09-10T08:43:23.049Z,73.62
2017-09-10T08:45:50.501Z,72.40
2017-09-10T08:48:18.027Z,73.05
2017-09-10T08:50:45.481Z,72.56
2017-09-10T08:53:12.988Z,73.01
2017-09-10T08:55:40.445Z,72.17
2017-09-10T08:58:07.912Z,70.62
2017-09-10T09:00:35.405Z,70.65
2017-09-10T09:03:02.885Z,70.29
2017-09-10T09:05:30.380Z,69.86
2017-09-10T09:07:57.839Z,68.87
2017-09-10T09:10:25.354Z,68.72
2017-09-10T09:12:53.094Z,68.31
2017-09-10T09:15:20.585Z,68.47
2017-09-10T09:17:48.069Z,68.13
2017-09-10T09:20:15.624Z,68.28
2017-09-10T09:22:43.191Z,68.99
2017-09-10T09:25:10.669Z,68.06
2017-09-10T09:27:38.129Z,68.52
2017-09-10T09:30:05.608Z,67.83
2017-09-10T09:32:33.064Z,67.71
2017-09-10T09:35:00.570Z,68.02
2017-09-10T09:37:28.045Z,67.09
2017-09-10T09:39:55.519Z,67.60
2017-09-10T09:42:22.977Z,67.06
2017-09-10T09:44:50.460Z,67.24
2017-09-10T09:47:17.934Z,67.39
2017-09-10T09:49:45.453Z,67.47
2017-09-10T09:52:12.937Z,67.76
2017-09-10T09:54:40.437Z,67.99
2017-09-10T09:57:07.884Z,68.55
2017-09-10T09:59:35.401Z,67.27
2017-09-10T10:02:02.918Z,67.25
2017-09-10T10:04:30.465Z,66.46
2017-09-10T10:06:57.945Z,65.38
2017-09-10T10:09:25.415Z,65.01
2017-09-10T10:11:52.893Z,64.51
2017-09-10T10:14:20.349Z,63.65
2017-09-10T10:16:47.829Z,63.48
2017-09-10T10:19:15.281Z,64.47
2017-09-10T10:21:42.753Z,63.95
2017-09-10T10:24:10.224Z,64.86
2017-09-10T10:26:37.778Z,63.41
2017-09-10T10:29:05.326Z,61.51
2017-09-10T10:31:32.888Z,61.45
2017-09-10T10:34:00.332Z,60.49
2017-09-10T10:36:28.080Z,61.06
2017-09-10T10:38:55.569Z,60.32
2017-09-10T10:41:23.049Z,60.25
2017-09-10T10:43:50.509Z,60.54
2017-09-10T10:46:18.000Z,61.21
2017-09-10T10:48:45.484Z,60.13
2017-09-10T10:51:12.952Z,58.88
2017-09-10T10:53:40.517Z,58.39
2017-09-10T10:56:08.068Z,58.18
2017-09-10T10:58:35.544Z,57.30
2017-09-10T11:01:03.082Z,57.90
2017-09-10T11:03:30.549Z,58.65
2017-09-10T11:05:58.099Z,58.25
2017-09-10T11:08:25.585Z,58.70
2017-09-10T11:10:53.163Z,57.48
2017-09-10T11:13:20.633Z,57.75
2017-09-10T11:15:48.133Z,58.33
2017-09-10T11:18:15.685Z,58.63
2017-09-10T11:20:43.132Z,58.24
2017-09-10T11:23:10.648Z,57.87
2017-09-10T11:25:38.097Z,56.65
2017-09-10T11:28:06.437Z,56.87
2017-09-10T11:30:33.990Z,57.36
2017-09-10T11:33:01.465Z,56.86
2017-09-10T11:35:29.006Z,56.97
2017-09-10T11:37:56.868Z,56.40
2017-09-10T11:40:24.317Z,56.59
2017-09-10T11:42:51.864Z,56.45
2017-09-10T11:45:19.349Z,56.19
2017-09-10T11:47:46.855Z,55.58
2017-09-10T11:50:14.313Z,55.64
2017-09-10T11:52:41.829Z,54.31
2017-09-10T11:55:09.285Z,55.89
2017-09-10T11:57:36.756Z,55.98
2017-09-10T12:00:04.225Z,55.15
2017-09-10T12:02:31.685Z,55.69
2017-09-10T12:04:59.165Z,55.11
2017-09-10T12:07:26.617Z,55.21
2017-09-10T12:09:54.091Z,54.47
2017-09-10T12:12:21.554Z,54.05
2017-09-10T12:14:49.129Z,54.65
2017-09-10T12:17:16.618Z,55.02
2017-09-10T12:19:44.162Z,55.07
2017-09-10T12:22:11.617Z,55.05
2017-09-10T12:24:39.360Z,54.54
2017-09-10T12:27:06.816Z,55.44
2017-09-10T12:29:34.381Z,54.23
2017-09-10T12:32:01.855Z,54.32
2017-09-10T12:34:29.400Z,55.21
2017-09-10T12:36:56.888Z,54.67
2017-09-10T12:39:24.364Z,55.17
2017-09-10T12:41:51.833Z,55.89
2017-09-10T12:44:19.325Z,54.52
2017-09-10T12:46:46.790Z,55.19
2017-09-10T12:49:14.264Z,54.42
2017-09-10T12:51:41.716Z,54.30
2017-09-10T12:54:09.257Z,54.90
2017-09-10T12:56:36.707Z,54.72
2017-09-10T12:59:04.181Z,55.13
2017-09-10T13:01:31.732Z,54.15
2017-09-10T13:03:59.208Z,54.10
2017-09-10T13:06:26.748Z,53.61
2017-09-10T13:08:54.223Z,52.72
2017-09-10T13:11:21.713Z,53.14
2017-09-10T13:13:49.168Z,53.97
2017-09-10T13:16:16.652Z,53.68
2017-09-10T13:18:44.128Z,54.91
2017-09-10T13:21:11.689Z,53.86
2017-09-10T13:23:39.255Z,54.64
2017-09-10T13:26:06.761Z,54.82
2017-09-10T13:28:34.246Z,53.89
2017-09-10T13:31:01.724Z,54.24
2017-09-10T13:33:29.273Z,53.67
2017-09-10T13:35:57.293Z,54.84
2017-09-10T13:38:24.760Z,54.22
2017-09-10T13:40:52.239Z,54.90
2017-09-10T13:43:19.698Z,55.31
2017-09-10T13:45:47.282Z,55.55
2017-09-10T13:48:14.841Z,55.67
2017-09-10T13:50:42.370Z,55.54
2017-09-10T13:53:09.828Z,55.06
2017-09-10T13:55:37.313Z,55.54
2017-09-10T13:58:04.777Z,54.90
2017-09-10T14:00:32.251Z,54.97
2017-09-10T14:02:59.797Z,55.25
2017-09-10T14:05:27.252Z,55.22
2017-09-10T14:07:54.724Z,54.70
2017-09-10T14:10:22.183Z,54.76
2017-09-10T14:12:49.676Z,54.86
2017-09-10T14:15:17.156Z,54.81
2017-09-10T14:17:44.716Z,54.74
2017-09-10T14:20:12.169Z,54.53
2017-09-10T14:22:39.732Z,54.10
2017-09-10T14:25:07.193Z,54.25
2017-09-10T14:27:34.672Z,54.51
2017-09-10T14:30:02.112Z,54.33
2017-09-10T14:32:29.585Z,53.89
2017-09-10T14:34:57.469Z,54.33
2017-09-10T14:37:24.946Z,53.27
2017-09-10T14:39:52.444Z,53.78
2017-09-10T14:42:20.001Z,53.73
2017-09-10T14:44:47.561Z,53.07
2017-09-10T14:47:15.367Z,52.57
2017-09-10T14:49:42.880Z,52.19
2017-09-10T14:52:10.365Z,52.31
2017-09-10T14:54:37.853Z,52.11
2017-09-10T14:57:05.338Z,52.97
2017-09-10T14:59:32.789Z,52.28
2017-09-10T15:02:00.267Z,52.17
2017-09-10T15:04:27.733Z,52.93
2017-09-10T15:06:55.209Z,52.41
2017-09-10T15:09:22.684Z,52.64
2017-09-10T15:11:50.156Z,52.16
2017-09-10T15:14:17.703Z,52.50
2017-09-10T15:16:45.160Z,52.58
2017-09-10T15:19:12.769Z,52.56
2017-09-10T15:21:40.249Z,52.91
2017-09-10T15:24:07.745Z,53.79
2017-09-10T15:26:35.252Z,53.18
2017-09-10T15:29:02.728Z,53.10
2017-09-10T15:31:30.180Z,53.61
2017-09-10T15:33:57.665Z,53.72
2017-09-10T15:36:25.125Z,54.38
2017-09-10T15:38:52.607Z,54.24
2017-09-10T15:41:20.070Z,54.48
2017-09-10T15:43:47.577Z,55.00
2017-09-10T15:46:15.052Z,53.71
2017-09-10T15:48:42.560Z,53.32
2017-09-10T15:51:10.113Z,54.52
2017-09-10T15:53:37.669Z,53.88
2017-09-10T15:56:05.129Z,54.74
2017-09-10T15:58:32.633Z,53.71
2017-09-10T16:01:00.081Z,53.12
2017-09-10T16:03:27.597Z,54.28
2017-09-10T16:05:55.075Z,54.50
2017-09-10T16:08:22.541Z,54.54
2017-09-10T16:10:50.961Z,54.15
2017-09-10T16:13:18.422Z,54.90
2017-09-10T16:15:45.904Z,54.47
2017-09-10T16:18:13.464Z,54.28
2017-09-10T16:20:41.053Z,55.01
2017-09-10T16:23:08.782Z,54.33
2017-09-10T16:25:36.255Z,54.93
2017-09-10T16:28:03.829Z,55.18
2017-09-10T16:30:31.366Z,55.32
2017-09-10T16:32:58.820Z,54.94
2017-09-10T16:35:26.563Z,55.24
2017-09-10T16:37:54.007Z,54.51
2017-09-10T16:40:21.492Z,54.84
2017-09-10T16:42:48.957Z,55.51
2017-09-10T16:45:16.517Z,55.65
2017-09-10T16:47:43.965Z,56.17
2017-09-10T16:50:11.468Z,55.65
2017-09-10T16:52:38.983Z,56.16
2017-09-10T16:55:06.547Z,55.75
2017-09-10T16:57:34.110Z,56.62
2017-09-10T17:00:01.656Z,56.94
2017-09-10T17:02:29.127Z,56.35
2017-09-10T17:04:56.619Z,57.56
2017-09-10T17:07:24.135Z,57.85
2017-09-10T17:09:51.593Z,58.41
2017-09-10T17:12:19.073Z,58.45
2017-09-10T17:14:46.612Z,58.24
2017-09-10T17:17:14.097Z,58.54
2017-09-10T17:19:41.543Z,58.51
2017-09-10T17:22:09.019Z,59.17
2017-09-10T17:24:36.475Z,59.08
2017-09-10T17:27:03.956Z,59.49
2017-09-10T17:29:31.404Z,59.08
2017-09-10T17:31:58.877Z,59.67
2017-09-10T17:34:27.168Z,60.31
2017-09-10T17:36:54.733Z,60.29
2017-09-10T17:39:22.214Z,60.83
2017-09-10T17:41:49.700Z,61.15
2017-09-10T17:44:17.169Z,61.27
2017-09-10T17:46:44.673Z,62.17
2017-09-10T17:49:12.217Z,61.91
2017-09-10T17:51:39.795Z,60.87
2017-09-10T17:54:07.254Z,61.56
2017-09-10T17:56:34.803Z,61.17
2017-09-10T17:59:02.350Z,61.85
2017-09-10T18:01:29.859Z,62.85
2017-09-10T18:03:57.373Z,63.24
2017-09-10T18:06:24.924Z,62.80
2017-09-10T18:08:52.485Z,64.59
2017-09-10T18:11:19.939Z,65.83
2017-09-10T18:13:47.414Z,66.28
2017-09-10T18:16:14.870Z,67.85
2017-09-10T18:18:42.343Z,67.82
2017-09-10T18:21:09.892Z,67.21
2017-09-10T18:23:37.364Z,67.61
2017-09-10T18:26:04.827Z,67.60
2017-09-10T18:28:32.307Z,68.19
2017-09-10T18:30:59.763Z,69.17
2017-09-10T18:33:27.279Z,69.54
2017-09-10T18:35:54.763Z,69.77
2017-09-10T18:38:22.228Z,69.82
2017-09-10T18:40:49.683Z,69.85
2017-09-10T18:43:17.160Z,68.98
2017-09-10T18:45:44.617Z,69.04
2017-09-10T18:48:12.109Z,67.55
2017-09-10T18:50:39.581Z,67.23
2017-09-10T18:53:07.061Z,66.72
2017-09-10T18:55:34.572Z,66.79
2017-09-10T18:58:02.057Z,66.57
2017-09-10T19:00:29.523Z,66.40
2017-09-10T19:02:57.049Z,66.85
2017-09-10T19:05:24.528Z,67.22
2017-09-10T19:07:52.004Z,67.23
2017-09-10T19:10:19.524Z,67.19
2017-09-10T19:12:47.383Z,66.90
2017-09-10T19:15:14.949Z,66.86
2017-09-10T19:17:42.428Z,66.93
2017-09-10T19:20:09.961Z,67.33
2017-09-10T19:22:37.453Z,67.75
2017-09-10T19:25:05.122Z,67.54
2017-09-10T19:27:32.605Z,67.65
2017-09-10T19:30:00.121Z,67.89
2017-09-10T19:32:27.661Z,68.08
2017-09-10T19:34:55.135Z,68.49
2017-09-10T19:37:23.053Z,68.96
2017-09-10T19:39:50.577Z,69.60
2017-09-10T19:42:18.082Z,69.27
2017-09-10T19:44:45.578Z,69.63
2017-09-10T19:47:13.041Z,70.14
2017-09-10T19:49:40.525Z,70.14
2017-09-10T19:52:08.013Z,71.89
2017-09-10T19:54:35.587Z,72.54
2017-09-10T19:57:03.167Z,73.40
2017-09-10T19:59:30.645Z,73.35
2017-09-10T20:01:58.202Z,73.80
2017-09-10T20:04:25.731Z,74.52
2017-09-10T20:06:53.204Z,74.49
2017-09-10T20:09:20.717Z,74.12
2017-09-10T20:11:48.185Z,72.70
2017-09-10T20:14:16.057Z,73.03
2017-09-10T20:16:43.611Z,74.24
2017-09-10T20:19:11.070Z,75.21
2017-09-10T20:21:38.549Z,74.71
2017-09-10T20:24:06.060Z,74.88
2017-09-10T20:26:33.535Z,75.54
2017-09-10T20:29:01.098Z,76.77
2017-09-10T20:31:28.648Z,76.53
2017-09-10T20:33:56.114Z,79.21
2017-09-10T20:36:23.609Z,79.02
2017-09-10T20:38:51.103Z,77.95
2017-09-10T20:41:18.577Z,78.09
2017-09-10T20:43:46.038Z,78.32
2017-09-10T20:46:13.596Z,78.19
2017-09-10T20:48:41.073Z,77.42
2017-09-10T20:51:08.551Z,77.16
2017-09-10T20:53:36.013Z,77.22
2017-09-10T20:56:03.501Z,77.14
2017-09-10T20:58:30.957Z,77.91
2017-09-10T21:00:58.449Z,79.78
2017-09-10T21:03:25.912Z,80.02
2017-09-10T21:05:53.389Z,80.31
2017-09-10T21:08:20.872Z,80.01
2017-09-10T21:10:48.355Z,79.14
2017-09-10T21:13:15.825Z,78.43
2017-09-10T21:15:43.289Z,78.38
2017-09-10T21:18:10.765Z,78.54
2017-09-10T21:20:38.222Z,77.81
2017-09-10T21:23:05.696Z,77.72
2017-09-10T21:25:33.354Z,77.47
2017-09-10T21:28:00.823Z,77.87
2017-09-10T21:30:28.318Z,79.28
2017-09-10T21:32:56.132Z,80.35
2017-09-10T21:35:23.650Z,80.44
2017-09-10T21:37:51.149Z,80.31
2017-09-10T21:40:18.680Z,81.25
2017-09-10T21:42:46.164Z,81.11
2017-09-10T21:45:13.669Z,80.60
2017-09-10T21:47:41.389Z,80.21
2017-09-10T21:50:09.045Z,79.63
2017-09-10T21:52:36.525Z,78.93
2017-09-10T21:55:04.048Z,78.42
2017-09-10T21:57:31.524Z,78.34
2017-09-10T21:59:58.973Z,77.29
2017-09-10T22:02:26.529Z,76.94
2017-09-10T22:04:53.972Z,76.55
2017-09-10T22:07:21.445Z,76.35
2017-09-10T22:09:48.950Z,76.01
2017-09-10T22:12:16.397Z,74.98
2017-09-10T22:14:43.981Z,74.91
2017-09-10T22:17:11.433Z,74.92
2017-09-10T22:19:38.912Z,75.36
2017-09-10T22:22:06.361Z,75.30
2017-09-10T22:24:33.892Z,75.16
2017-09-10T22:27:01.381Z,75.20
2017-09-10T22:29:28.856Z,74.83
2017-09-10T22:31:56.321Z,74.35
2017-09-10T22:34:23.821Z,74.37
2017-09-10T22:36:51.432Z,74.43
2017-09-10T22:39:18.905Z,74.16
2017-09-10T22:41:46.429Z,74.33
2017-09-10T22:44:13.888Z,74.59
2017-09-10T22:46:41.368Z,75.07
2017-09-10T22:49:09.688Z,74.32
2017-09-10T22:51:37.133Z,74.48
2017-09-10T22:54:04.600Z,74.93
2017-09-10T22:56:32.188Z,74.56
2017-09-10T22:58:59.705Z,75.20
2017-09-10T23:01:27.755Z,74.92
2017-09-10T23:03:55.229Z,75.03
2017-09-10T23:06:22.705Z,75.03
2017-09-10T23:08:50.169Z,75.29
2017-09-10T23:11:17.653Z,74.69
2017-09-10T23:13:45.323Z,74.88
2017-09-10T23:16:12.823Z,75.46
2017-09-10T23:18:40.277Z,75.54
2017-09-10T23:21:07.782Z,76.30
2017-09-10T23:23:35.238Z,76.15
2017-09-10T23:26:02.923Z,75.72
2017-09-10T23:28:30.425Z,75.76
2017-09-10T23:30:57.896Z,74.61
2017-09-10T23:33:25.353Z,75.59
2017-09-10T23:35:52.830Z,76.29
2017-09-10T23:38:20.360Z,77.37
2017-09-10T23:40:47.909Z,77.83
2017-09-10T23:43:15.361Z,78.46
2017-09-10T23:45:42.831Z,79.37
2017-09-10T23:48:10.279Z,80.11
2017-09-10T23:50:37.837Z,79.89
2017-09-10T23:53:05.416Z,79.42
2017-09-10T23:55:32.889Z,79.35
2017-09-10T23:58:00.419Z,80.10
